Time;durP1;ratioP1;P1;durP2;ratioP2;P2;SDS_P1;SDS_P2;PMS_P1;PMS_P2;Temp;Humidity;BMP_temperature;BMP_pressure;BME280_temperature;BME280_humidity;BME280_pressure;Samples;Min_cycle;Max_cycle;Signal;HPM_P1;HPM_P2
2020/12/24 00:00:46;;;;;;;11.10;4.80;;;11.00;99.90;;;11.25;80.45;100429.03;5074648;28;20055;-68
2020/12/24 00:03:14;;;;;;;10.65;4.80;;;11.10;99.90;;;11.18;80.77;100419.44;5074610;28;20389;-68
2020/12/24 00:05:41;;;;;;;13.63;5.07;;;11.00;99.90;;;11.19;80.97;100423.84;5074225;28;20082;-68
2020/12/24 00:08:09;;;;;;;14.50;5.28;;;11.00;99.90;;;11.24;80.91;100426.41;5074198;28;20071;-68
2020/12/24 00:10:39;;;;;;;12.27;5.57;;;11.00;99.90;;;11.21;80.79;100422.03;5074306;28;20474;-68
2020/12/24 00:13:06;;;;;;;10.95;5.28;;;11.00;99.90;;;11.07;80.43;100394.88;5074330;28;20110;-68
2020/12/24 00:15:34;;;;;;;10.93;4.63;;;11.00;99.90;;;11.16;80.48;100418.59;5074079;28;20508;-68
2020/12/24 00:18:17;;;;;;;13.32;5.35;;;11.00;99.90;;;11.12;80.85;100416.88;5074330;28;20052;-68
2020/12/24 00:20:45;;;;;;;12.10;4.90;;;10.90;99.90;;;11.09;80.79;100400.19;5074298;28;20114;-68
2020/12/24 00:23:12;;;;;;;8.40;5.10;;;10.90;99.90;;;11.18;80.74;100400.91;5074220;28;20052;-68
2020/12/24 00:25:40;;;;;;;9.80;4.70;;;11.00;99.90;;;11.09;80.80;100416.91;5073900;28;20116;-68
2020/12/24 00:28:07;;;;;;;9.80;4.95;;;10.90;99.90;;;11.11;80.73;100416.91;5074060;28;20056;-68
2020/12/24 00:30:35;;;;;;;7.18;4.60;;;10.90;99.90;;;11.05;80.70;100422.28;5072747;28;20060;-68
2020/12/24 00:33:02;;;;;;;7.80;4.60;;;10.90;99.90;;;11.06;80.97;100405.50;5073999;28;20056;-68
2020/12/24 00:35:30;;;;;;;11.40;4.47;;;10.90;99.90;;;11.15;80.71;100413.31;5074116;28;20074;-68
2020/12/24 00:37:58;;;;;;;10.80;4.78;;;10.90;99.90;;;11.10;80.39;100413.38;5073787;28;20052;-69
2020/12/24 00:40:27;;;;;;;8.32;4.85;;;10.90;99.90;;;10.96;80.18;100395.94;5073676;28;20118;-68
2020/12/24 00:42:54;;;;;;;13.40;4.95;;;10.90;99.90;;;11.03;80.59;100426.72;5073817;28;20044;-68
2020/12/24 00:45:21;;;;;;;7.50;4.32;;;10.80;99.90;;;10.94;80.73;100408.34;5073996;28;20044;-68
2020/12/24 00:47:50;;;;;;;12.15;5.07;;;10.80;99.90;;;11.01;80.74;100436.44;5072350;28;20097;-68
2020/12/24 00:50:18;;;;;;;9.30;4.60;;;10.80;99.90;;;11.00;80.42;100406.47;5073630;28;20033;-68
2020/12/24 00:52:46;;;;;;;9.30;4.85;;;10.80;99.90;;;10.87;80.90;100416.34;5073649;28;20049;-68
2020/12/24 00:55:16;;;;;;;10.27;4.90;;;10.70;99.90;;;10.78;81.17;100403.22;5073373;28;20045;-68
2020/12/24 00:57:47;;;;;;;9.73;4.60;;;10.60;99.90;;;10.92;81.08;100413.63;5072083;28;20474;-68
2020/12/24 01:00:15;;;;;;;12.55;4.50;;;10.70;99.90;;;10.89;81.22;100416.31;5072217;28;20044;-68
2020/12/24 01:02:43;;;;;;;12.13;5.25;;;10.60;99.90;;;10.82;81.26;100414.63;5073358;28;20048;-68
2020/12/24 01:05:10;;;;;;;10.20;4.93;;;10.60;99.90;;;10.69;81.54;100418.31;5073405;28;20048;-68
2020/12/24 01:07:38;;;;;;;11.05;4.93;;;10.50;99.90;;;10.84;81.13;100411.06;5073283;28;20052;-68
2020/12/24 01:10:07;;;;;;;16.02;5.43;;;10.60;99.90;;;10.81;80.86;100404.97;5073401;28;20437;-68
2020/12/24 01:12:35;;;;;;;14.70;5.32;;;10.60;99.90;;;10.79;81.09;100420.84;5073368;28;20131;-69
2020/12/24 01:15:06;;;;;;;11.90;5.13;;;10.60;99.90;;;10.78;81.19;100471.16;5073154;28;20071;-68
2020/12/24 01:17:33;;;;;;;10.70;4.85;;;10.60;99.90;;;10.73;81.10;100412.09;5073075;28;20040;-68
2020/12/24 01:20:01;;;;;;;12.48;5.07;;;10.60;99.90;;;10.76;81.14;100415.59;5073088;28;20068;-68
2020/12/24 01:22:31;;;;;;;15.48;5.60;;;10.50;99.90;;;10.72;81.23;100421.81;5073107;28;20447;-69
2020/12/24 01:24:58;;;;;;;10.63;4.75;;;10.50;99.90;;;10.78;81.05;100415.59;5071513;28;20068;-68
2020/12/24 01:27:31;;;;;;;9.25;5.30;;;10.60;99.90;;;10.79;81.08;100415.56;5072955;28;20093;-68
2020/12/24 01:29:58;;;;;;;13.27;4.93;;;10.60;99.90;;;10.71;81.13;100424.47;5072921;28;20044;-68
2020/12/24 01:32:26;;;;;;;11.63;4.63;;;10.50;99.90;;;10.60;81.12;100406.09;5072563;28;20081;-68
2020/12/24 01:34:53;;;;;;;12.27;4.90;;;10.50;99.90;;;10.72;81.01;100420.94;5072754;28;20048;-68
2020/12/24 01:37:23;;;;;;;11.13;4.80;;;10.50;99.90;;;10.80;80.61;100419.09;5072555;28;20037;-68
2020/12/24 01:39:51;;;;;;;11.05;4.78;;;10.50;99.90;;;10.75;80.57;100427.06;5072756;28;20090;-68
2020/12/24 01:42:19;;;;;;;11.88;5.32;;;10.50;99.90;;;10.80;80.63;100424.38;5072350;28;20036;-68
2020/12/24 01:44:48;;;;;;;14.65;5.57;;;10.50;99.90;;;10.78;80.56;100427.03;5072945;28;20040;-68
2020/12/24 01:47:15;;;;;;;11.15;5.22;;;10.50;99.90;;;10.78;80.68;100432.31;5072332;28;20036;-68
2020/12/24 01:49:43;;;;;;;10.82;4.80;;;10.60;99.90;;;10.73;80.32;100426.22;5071262;28;20081;-68
2020/12/24 01:53:14;;;;;;;11.77;4.68;;;10.50;99.90;;;10.65;80.55;100420.13;5072731;28;20052;-68
2020/12/24 01:55:52;;;;;;;13.52;5.63;;;10.40;99.90;;;10.54;80.78;100411.47;5071098;28;20098;-68
2020/12/24 01:58:20;;;;;;;10.52;4.93;;;10.40;99.90;;;10.61;80.60;100412.25;5072440;28;20082;-68
2020/12/24 02:00:48;;;;;;;10.57;4.63;;;10.40;99.90;;;10.56;80.87;100416.72;5072158;28;20402;-68
2020/12/24 02:03:19;;;;;;;14.27;5.13;;;10.30;99.90;;;10.50;80.75;100412.41;5072180;28;20063;-68
2020/12/24 02:05:46;;;;;;;12.02;4.80;;;10.30;99.90;;;9.69;81.06;100308.44;5072097;28;20815;-68
2020/12/24 02:08:16;;;;;;;13.70;5.55;;;10.20;99.90;;;10.41;81.70;100411.63;5072173;28;20130;-67
2020/12/24 02:10:43;;;;;;;12.45;4.70;;;10.20;99.90;;;10.29;81.53;100409.09;5072000;28;20087;-68
2020/12/24 02:13:11;;;;;;;14.55;4.32;;;10.20;99.90;;;10.42;81.20;100411.59;5070965;28;20486;-68
2020/12/24 02:15:39;;;;;;;13.85;5.30;;;10.20;99.90;;;10.47;81.32;100417.69;5072306;28;20082;-68
2020/12/24 02:18:07;;;;;;;11.65;4.82;;;10.20;99.90;;;10.51;81.08;100421.22;5072231;28;20091;-68
2020/12/24 02:20:34;;;;;;;12.23;5.13;;;10.30;99.90;;;10.40;81.21;100416.03;5072212;28;20040;-68
2020/12/24 02:23:03;;;;;;;13.38;5.10;;;10.20;99.90;;;10.22;81.60;100402.16;5072247;28;20056;-68
2020/12/24 02:25:30;;;;;;;12.38;5.28;;;10.20;99.90;;;10.41;81.58;100416.91;5072338;28;20040;-68
2020/12/24 02:27:57;;;;;;;14.63;5.07;;;10.20;99.90;;;10.40;81.66;100412.50;5071092;28;20080;-68
2020/12/24 02:30:25;;;;;;;13.80;5.00;;;10.20;99.90;;;10.41;82.04;100422.19;5074665;28;20049;-68
2020/12/24 02:32:53;;;;;;;13.55;5.35;;;10.20;99.90;;;10.49;81.86;100438.84;5076247;28;20405;-67
2020/12/24 02:35:20;;;;;;;10.25;5.45;;;10.30;99.90;;;10.54;81.60;100410.59;5076258;28;20393;-68
2020/12/24 02:37:47;;;;;;;12.32;5.05;;;10.30;99.90;;;10.52;81.52;100407.09;5074762;28;20040;-68
2020/12/24 02:40:16;;;;;;;12.23;4.72;;;10.30;99.90;;;10.55;81.30;100405.28;5076111;28;20066;-68
2020/12/24 02:42:43;;;;;;;12.90;5.03;;;10.30;99.90;;;10.47;81.50;100415.06;5075815;28;20083;-68
2020/12/24 02:45:10;;;;;;;15.75;5.35;;;10.30;99.90;;;10.56;81.17;100419.38;5076063;28;20040;-68
2020/12/24 02:47:38;;;;;;;11.48;4.70;;;10.30;99.90;;;10.48;81.34;100427.41;5076007;28;20135;-68
2020/12/24 02:50:09;;;;;;;13.45;4.78;;;10.30;99.90;;;10.56;81.33;100414.09;5074701;28;20048;-68
2020/12/24 02:52:37;;;;;;;11.48;5.10;;;10.30;99.90;;;10.55;81.10;100407.91;5074687;28;20472;-68
2020/12/24 02:55:06;;;;;;;14.52;4.80;;;10.30;99.90;;;10.50;80.93;100396.53;5075898;28;20071;-68
2020/12/24 02:57:34;;;;;;;13.38;5.30;;;10.40;99.90;;;10.72;80.47;100419.16;5075776;28;20040;-68
2020/12/24 03:00:09;;;;;;;11.77;4.80;;;10.50;99.90;;;10.65;80.58;100414.84;5076003;28;20071;-68
2020/12/24 03:02:37;;;;;;;17.35;5.40;;;10.40;99.90;;;10.66;80.44;100413.97;5075832;28;20087;-68
2020/12/24 03:05:05;;;;;;;9.73;4.55;;;10.40;99.90;;;10.70;80.44;100414.81;5075384;28;20036;-69
2020/12/24 03:07:40;;;;;;;14.52;5.43;;;10.50;99.90;;;10.68;80.80;100419.25;5075645;28;20146;-68
2020/12/24 03:10:11;;;;;;;10.75;4.65;;;10.40;99.90;;;10.66;80.70;100416.63;5108187;28;20063;-68
2020/12/24 03:12:39;;;;;;;;;;;10.40;99.90;;;10.69;80.72;100410.41;5075825;28;20040;-68
2020/12/24 03:15:09;;;;;;;18.35;4.97;;;10.50;99.90;;;10.88;80.51;100411.91;5075259;28;19924;-68
2020/12/24 03:17:38;;;;;;;;;;;10.60;99.90;;;10.73;80.53;100433.28;5075606;28;20389;-68
2020/12/24 03:20:16;;;;;;;13.15;5.07;;;10.50;99.90;;;10.73;80.49;100412.09;5075407;28;19920;-68
2020/12/24 03:22:44;;;;;;;8.27;4.45;;;10.50;99.90;;;10.71;80.67;100411.25;5075047;28;20553;-68
2020/12/24 03:25:12;;;;;;;12.05;4.97;;;10.50;99.90;;;10.66;80.63;100413.09;5075364;28;20049;-68
2020/12/24 03:27:40;;;;;;;9.52;4.70;;;10.50;99.90;;;10.78;80.54;100415.59;5074981;28;20127;-68
2020/12/24 03:30:09;;;;;;;9.57;4.57;;;10.50;99.90;;;10.87;80.23;100405.75;5074967;28;20402;-68
2020/12/24 03:32:36;;;;;;;12.07;5.07;;;10.60;99.90;;;10.80;79.99;100419.09;5073796;28;20074;-68
2020/12/24 03:35:04;;;;;;;12.43;4.22;;;10.60;99.90;;;10.85;79.95;100406.66;5075053;28;20102;-68
2020/12/24 03:37:34;;;;;;;14.65;5.10;;;10.60;99.90;;;10.78;79.79;100405.00;5074746;28;20040;-68
2020/12/24 03:40:03;;;;;;;15.07;5.57;;;10.60;99.90;;;10.80;79.99;100414.66;5073698;28;20040;-68
2020/12/24 03:42:31;;;;;;;10.57;4.93;;;10.60;99.90;;;10.74;79.93;100414.72;5073490;28;20068;-68
2020/12/24 03:44:59;;;;;;;8.63;4.72;;;10.60;99.90;;;10.88;79.92;100411.91;5074628;28;20182;-68
2020/12/24 03:47:26;;;;;;;11.18;5.38;;;10.60;99.90;;;11.00;79.72;100416.16;5074948;28;20101;-68
2020/12/24 03:49:54;;;;;;;13.18;5.25;;;10.70;99.90;;;11.03;79.44;100418.78;5074614;28;20052;-68
2020/12/24 03:52:26;;;;;;;12.20;5.13;;;10.70;99.90;;;10.86;79.20;100388.13;5074863;28;20044;-68
2020/12/24 03:54:53;;;;;;;10.40;4.90;;;10.80;99.90;;;11.11;78.83;100440.72;5074574;28;20036;-68
2020/12/24 03:57:21;;;;;;;12.00;5.90;;;10.90;99.90;;;11.27;78.79;100474.91;5074607;28;20440;-68
2020/12/24 03:59:48;;;;;;;12.40;5.47;;;11.00;99.90;;;9.76;78.50;100233.53;5074655;28;20122;-68
2020/12/24 04:02:17;;;;;;;6.13;4.65;;;11.10;99.90;;;11.01;78.73;100500.84;5074584;28;20145;-68
2020/12/24 04:04:44;;;;;;;4.10;3.72;;;11.00;99.90;;;10.51;77.18;100463.50;5074619;28;20048;-68
2020/12/24 04:07:11;;;;;;;5.35;4.38;;;10.70;99.90;;;10.27;77.40;100503.41;5074257;28;20539;-67
2020/12/24 04:09:39;;;;;;;5.72;3.83;;;10.30;99.90;;;9.94;77.45;100499.25;5074526;28;20052;-67
2020/12/24 04:12:06;;;;;;;4.28;3.80;;;10.00;99.90;;;9.61;77.98;100518.84;5074081;28;20044;-66
2020/12/24 04:14:33;;;;;;;4.05;3.75;;;9.70;99.90;;;9.37;78.83;100518.97;5074419;28;20047;-67
2020/12/24 04:17:01;;;;;;;4.50;3.90;;;9.50;99.90;;;9.07;78.96;100529.69;5074076;28;20127;-68
2020/12/24 04:19:29;;;;;;;4.25;3.95;;;9.20;99.90;;;8.92;80.36;100514.78;5073965;28;20110;-68
2020/12/24 04:21:56;;;;;;;3.42;3.22;;;9.00;99.90;;;8.62;80.63;100519.25;5074070;28;20036;-68
2020/12/24 04:24:24;;;;;;;4.47;4.18;;;8.70;99.90;;;8.26;80.02;100514.94;5073978;28;20040;-67
2020/12/24 04:26:55;;;;;;;4.15;3.85;;;8.50;99.90;;;8.23;80.21;100562.31;5074152;28;20079;-68
2020/12/24 04:29:23;;;;;;;3.78;3.47;;;8.30;99.90;;;8.38;80.48;100572.03;5074167;28;20093;-68
2020/12/24 04:31:50;;;;;;;4.00;3.63;;;8.30;99.90;;;8.27;80.95;100557.94;5073976;28;20131;-68
2020/12/24 04:34:17;;;;;;;4.07;3.42;;;8.40;99.90;;;8.13;80.00;100579.00;5073896;28;20056;-67
2020/12/24 04:36:50;;;;;;;3.53;3.30;;;8.20;99.90;;;8.05;80.63;100588.66;5074429;28;20056;-68
2020/12/24 04:39:17;;;;;;;4.40;3.13;;;8.10;99.90;;;8.14;80.19;100610.63;5072695;28;20094;-68
2020/12/24 04:41:45;;;;;;;4.38;3.80;;;8.20;99.90;;;7.90;80.11;100615.84;5073526;28;20123;-67
2020/12/24 04:44:13;;;;;;;3.33;3.13;;;8.00;99.90;;;7.84;80.58;100622.88;5073843;28;20082;-67
2020/12/24 04:46:43;;;;;;;3.90;3.13;;;7.90;99.90;;;7.72;80.62;100625.47;5073934;28;20029;-68
2020/12/24 04:49:11;;;;;;;;;;;7.80;99.90;;;7.55;80.71;100628.00;5074385;28;20044;-68
2020/12/24 04:51:38;;;;;;;4.15;3.70;;;7.70;99.90;;;7.47;80.64;100627.09;5106244;28;20015;-67
2020/12/24 04:54:08;;;;;;;3.80;3.50;;;7.60;99.90;;;7.40;81.06;100634.97;5073385;28;20086;-68
2020/12/24 04:56:35;;;;;;;3.80;3.50;;;7.40;99.90;;;7.27;81.66;100620.88;5073424;28;20040;-67
2020/12/24 04:59:03;;;;;;;4.17;3.70;;;7.40;99.90;;;7.00;82.15;100602.34;5073252;28;20044;-68
2020/12/24 05:01:31;;;;;;;5.90;3.63;;;7.20;99.90;;;7.16;82.02;100638.38;5073440;28;20130;-67
2020/12/24 05:03:58;;;;;;;3.73;3.43;;;7.20;99.90;;;7.09;82.18;100642.72;5073166;28;20068;-67
2020/12/24 05:06:26;;;;;;;4.00;3.65;;;7.20;99.90;;;6.99;82.14;100614.59;5073128;28;20040;-74
2020/12/24 05:08:55;;;;;;;3.57;3.30;;;7.10;99.90;;;6.98;82.61;100640.88;5073117;28;20579;-74
2020/12/24 05:11:27;;;;;;;3.73;3.50;;;7.00;99.90;;;6.90;82.83;100648.72;5073409;28;20114;-71
2020/12/24 05:13:56;;;;;;;4.70;3.90;;;7.00;99.90;;;6.89;82.95;100660.09;5073619;28;20052;-71
2020/12/24 05:16:23;;;;;;;3.33;3.10;;;7.00;99.90;;;6.70;82.92;100628.41;5072934;28;20090;-73
2020/12/24 05:18:50;;;;;;;3.53;3.30;;;6.90;99.90;;;6.96;83.06;100651.41;5072860;28;20090;-71
2020/12/24 05:21:37;;;;;;;3.33;3.13;;;7.00;99.90;;;6.89;83.09;100665.34;5073328;28;20040;-71
2020/12/24 05:24:22;;;;;;;3.90;3.40;;;7.00;99.90;;;6.77;83.04;100653.88;5072699;28;20047;-71
2020/12/24 05:26:51;;;;;;;4.32;3.92;;;7.00;99.90;;;6.95;83.30;100690.81;5072863;28;20098;-72
2020/12/24 05:29:19;;;;;;;3.83;3.37;;;7.00;99.90;;;6.77;83.66;100669.66;5072687;28;20076;-71
2020/12/24 05:31:52;;;;;;;4.47;3.73;;;7.00;99.90;;;6.97;83.61;100678.53;5073119;28;20074;-71
2020/12/24 05:34:21;;;;;;;3.63;3.43;;;7.10;99.90;;;7.13;83.46;100704.97;5072904;28;20060;-72
2020/12/24 05:36:48;;;;;;;3.72;3.53;;;7.20;99.90;;;7.25;83.46;100719.94;5072871;28;20079;-71
2020/12/24 05:39:16;;;;;;;3.60;3.30;;;7.20;99.90;;;7.30;83.21;100720.84;5072740;28;20037;-71
2020/12/24 05:41:45;;;;;;;4.20;3.35;;;7.30;99.90;;;7.32;82.85;100713.84;5073095;28;20044;-71
2020/12/24 05:44:13;;;;;;;3.72;3.42;;;7.40;99.90;;;7.40;83.12;100738.47;5072720;28;20037;-71
2020/12/24 05:46:46;;;;;;;3.80;3.50;;;7.40;99.90;;;7.44;82.63;100729.72;5072440;28;20090;-71
2020/12/24 05:49:16;;;;;;;4.20;3.88;;;7.40;99.90;;;6.81;82.60;100634.66;5073011;28;20051;-72
2020/12/24 05:51:58;;;;;;;3.63;3.35;;;7.50;99.90;;;7.54;82.58;100756.97;5072753;28;20048;-72
2020/12/24 05:54:28;;;;;;;4.10;3.80;;;7.50;99.90;;;7.50;82.67;100755.19;5072621;28;20040;-71
2020/12/24 05:56:57;;;;;;;3.40;3.10;;;7.60;99.90;;;7.52;82.23;100764.84;5072679;28;20474;-71
2020/12/24 05:59:27;;;;;;;3.88;3.58;;;7.50;99.90;;;7.47;81.85;100750.75;5072184;28;20041;-71
2020/12/24 06:02:05;;;;;;;4.32;4.03;;;7.50;99.90;;;7.46;81.76;100759.53;5072517;28;20053;-71
2020/12/24 06:04:48;;;;;;;4.20;3.90;;;7.50;99.90;;;7.52;81.42;100767.47;5071494;28;20059;-71
2020/12/24 06:07:30;;;;;;;4.15;3.85;;;7.50;99.90;;;7.67;81.32;100772.81;5071167;28;20094;-72
2020/12/24 06:10:07;;;;;;;3.80;3.43;;;7.60;99.90;;;7.43;81.25;100727.97;5072597;28;20048;-72
2020/12/24 06:12:51;;;;;;;3.97;3.58;;;7.60;99.90;;;7.42;81.18;100738.47;5072409;28;20041;-72
2020/12/24 06:15:20;;;;;;;4.20;3.90;;;7.60;99.90;;;7.72;81.39;100771.13;5072330;28;20066;-72
2020/12/24 06:17:50;;;;;;;3.78;3.47;;;7.60;99.90;;;7.29;81.01;100714.72;5071975;28;20071;-72
2020/12/24 06:20:19;;;;;;;4.10;3.80;;;7.70;99.90;;;7.79;81.14;100796.59;5072357;28;20053;-72
2020/12/24 06:22:48;;;;;;;4.03;3.55;;;7.70;99.90;;;7.85;80.54;100806.28;5072276;28;20497;-72
2020/12/24 06:25:15;;;;;;;4.18;3.78;;;7.80;99.90;;;7.79;80.20;100812.41;5071977;28;20120;-72
2020/12/24 06:27:49;;;;;;;4.32;4.00;;;7.80;99.90;;;7.82;80.56;100827.34;5072194;28;20055;-72
2020/12/24 06:30:23;;;;;;;4.45;4.05;;;7.80;99.90;;;7.81;80.34;100836.97;5072277;28;20041;-72
2020/12/24 06:32:58;;;;;;;4.05;3.67;;;7.80;99.90;;;7.88;80.19;100837.88;5072253;28;20040;-72
2020/12/24 06:35:37;;;;;;;4.15;3.78;;;7.90;99.90;;;7.87;79.88;100849.28;5072138;28;20079;-71
2020/12/24 06:38:06;;;;;;;4.25;3.85;;;7.90;99.90;;;7.91;80.37;100854.59;5072043;28;20037;-72
2020/12/24 06:40:36;;;;;;;4.53;4.13;;;7.90;99.90;;;8.02;80.41;100866.06;5070701;28;20101;-71
2020/12/24 06:43:04;;;;;;;3.90;3.53;;;8.00;99.90;;;7.95;80.35;100863.41;5071906;28;20045;-71
2020/12/24 06:45:35;;;;;;;3.70;3.40;;;8.00;99.90;;;7.40;80.51;100769.13;5072006;28;20064;-72
2020/12/24 06:48:23;;;;;;;4.07;3.63;;;8.10;99.90;;;8.12;80.08;100901.25;5071777;28;20127;-72
2020/12/24 06:50:52;;;;;;;3.53;3.22;;;8.10;99.90;;;8.15;79.67;100909.16;5072011;28;20044;-72
2020/12/24 06:53:23;;;;;;;3.47;3.17;;;8.20;99.90;;;8.20;79.34;100932.03;5071668;28;20572;-72
2020/12/24 06:56:24;;;;;;;3.97;3.67;;;8.20;99.90;;;8.25;79.73;100934.72;5071709;28;20044;-72
2020/12/24 06:58:54;;;;;;;;;;;8.20;99.90;;;8.13;79.66;100934.59;5072088;28;20037;-72
2020/12/24 07:01:26;;;;;;;3.72;3.53;;;8.20;99.90;;;8.18;80.41;100949.59;5071651;28;19921;-72
2020/12/24 07:03:55;;;;;;;4.28;3.97;;;8.20;99.90;;;8.21;80.43;100960.13;5071850;28;20040;-72
2020/12/24 07:06:51;;;;;;;4.10;3.80;;;8.10;99.90;;;8.26;79.19;100972.50;5072167;28;20048;-72
2020/12/24 07:09:46;;;;;;;4.32;4.03;;;8.20;99.90;;;8.31;79.63;100976.03;5070879;28;20082;-72
2020/12/24 07:12:34;;;;;;;4.22;3.92;;;8.20;99.90;;;8.35;80.02;100968.16;5071558;28;20101;-72
2020/12/24 07:15:24;;;;;;;4.68;4.15;;;8.30;99.90;;;8.23;79.49;100954.88;5072161;28;20045;-72
2020/12/24 07:17:56;;;;;;;4.85;3.92;;;8.30;99.90;;;8.46;79.41;100976.16;5075239;28;20079;-72
2020/12/24 07:20:26;;;;;;;5.03;4.07;;;8.40;99.90;;;8.40;78.90;100979.59;5075466;28;20037;-72
2020/12/24 07:22:55;;;;;;;3.38;3.13;;;8.40;99.90;;;8.36;78.63;100984.88;5075569;28;20052;-72
2020/12/24 07:25:24;;;;;;;4.15;3.85;;;8.30;99.90;;;8.41;78.91;100988.41;5075052;28;20041;-72
2020/12/24 07:27:53;;;;;;;4.20;3.80;;;8.40;99.90;;;8.43;78.93;100990.19;5075272;28;20033;-72
2020/12/24 07:30:23;;;;;;;5.43;4.07;;;8.40;99.90;;;8.47;79.46;100991.97;5075255;28;20105;-72
2020/12/24 07:32:55;;;;;;;;;;;8.40;99.90;;;8.26;78.95;100956.69;5075427;28;20040;-72
2020/12/24 07:35:23;;;;;;;5.85;4.15;;;8.50;99.90;;;8.58;79.28;101002.56;5075184;28;20366;-72
2020/12/24 07:37:54;;;;;;;5.05;4.25;;;8.50;99.90;;;8.56;79.05;100999.91;5074920;28;20094;-72
2020/12/24 07:40:33;;;;;;;5.07;4.43;;;8.50;99.90;;;8.59;79.37;101009.59;5074901;28;20048;-72
2020/12/24 07:43:11;;;;;;;4.82;4.40;;;8.50;99.90;;;8.58;79.06;100999.91;5073568;28;20051;-72
2020/12/24 07:45:39;;;;;;;7.57;4.53;;;8.60;99.90;;;8.74;79.33;101026.41;5075064;28;20071;-73
2020/12/24 07:48:15;;;;;;;5.57;4.70;;;8.70;99.90;;;8.74;79.26;101022.88;5074934;28;20121;-72
2020/12/24 07:50:44;;;;;;;5.07;4.55;;;8.70;99.90;;;8.67;78.85;101034.25;5075066;28;20040;-71
2020/12/24 07:53:18;;;;;;;6.72;4.10;;;8.60;99.90;;;8.55;78.48;101007.81;5074974;28;20048;-72
2020/12/24 07:55:47;;;;;;;5.82;3.90;;;8.70;99.90;;;8.76;78.52;101040.47;5074899;28;20045;-72
2020/12/24 07:58:16;;;;;;;6.88;4.13;;;8.70;99.90;;;8.87;78.25;101058.97;5074684;28;20041;-72
2020/12/24 08:00:46;;;;;;;7.68;4.82;;;8.80;99.90;;;8.87;78.35;101058.97;5074967;28;20052;-72
2020/12/24 08:03:17;;;;;;;11.95;5.25;;;8.80;99.90;;;8.85;78.15;101072.16;5074586;28;20037;-73
2020/12/24 08:05:46;;;;;;;6.93;4.15;;;8.80;99.90;;;8.80;78.17;101062.47;5074413;28;20040;-72
2020/12/24 08:08:21;;;;;;;7.65;4.18;;;8.80;99.90;;;8.95;78.56;101079.25;5074282;28;20127;-72
2020/12/24 08:10:48;;;;;;;6.97;4.57;;;8.80;99.90;;;8.75;78.22;101062.44;5074538;28;20084;-72
2020/12/24 08:13:16;;;;;;;5.93;4.28;;;8.80;99.90;;;8.81;78.12;101065.09;5074488;28;20163;-74
2020/12/24 08:15:46;;;;;;;7.32;4.75;;;8.80;99.90;;;9.02;77.87;101088.06;5074096;28;20041;-71
2020/12/24 08:18:22;;;;;;;4.63;4.00;;;8.90;99.90;;;9.04;77.66;101094.22;5074325;28;20128;-72
2020/12/24 08:20:56;;;;;;;6.25;4.43;;;9.00;99.90;;;9.04;77.99;101110.97;5074325;28;20051;-70
2020/12/24 08:23:45;;;;;;;7.47;4.35;;;9.00;99.90;;;9.08;77.46;101096.03;5074063;28;20119;-71
2020/12/24 08:26:15;;;;;;;7.03;4.15;;;9.00;99.90;;;9.15;77.76;101103.09;5073939;28;20040;-71
2020/12/24 08:28:51;;;;;;;7.88;4.20;;;9.00;99.90;;;8.23;77.80;100953.13;5073036;28;20045;-70
2020/12/24 08:31:20;;;;;;;4.63;4.10;;;9.10;99.90;;;9.27;77.25;101100.50;5074116;28;20490;-70
2020/12/24 08:33:51;;;;;;;7.90;4.22;;;9.20;99.90;;;8.92;77.11;101038.78;5073699;28;20205;-70
2020/12/24 08:36:21;;;;;;;9.85;4.47;;;9.20;99.90;;;9.35;77.09;101114.63;5074146;28;20048;-70
2020/12/24 08:38:50;;;;;;;5.90;4.15;;;9.20;99.90;;;9.34;77.09;101119.91;5073880;28;20036;-69
2020/12/24 08:41:23;;;;;;;8.25;4.28;;;9.20;99.90;;;9.34;76.99;101111.97;5073807;28;20840;-70
2020/12/24 08:43:55;;;;;;;6.57;4.13;;;9.20;99.90;;;9.37;77.00;101131.34;5073948;28;20036;-71
2020/12/24 08:46:23;;;;;;;6.07;4.05;;;9.20;99.90;;;9.34;77.49;101138.38;5073780;28;20040;-70
2020/12/24 08:48:52;;;;;;;11.13;4.55;;;9.20;99.90;;;9.34;76.93;101147.19;5073894;28;20481;-71
2020/12/24 08:51:21;;;;;;;7.47;4.20;;;9.30;99.90;;;9.19;76.19;101135.66;5072539;28;20454;-72
2020/12/24 08:54:06;;;;;;;9.15;4.20;;;9.20;99.90;;;9.28;76.21;101163.00;5073519;28;20048;-69
2020/12/24 08:56:35;;;;;;;12.80;4.38;;;9.20;99.90;;;9.23;76.69;101164.75;5073863;28;20052;-70
2020/12/24 08:59:08;;;;;;;10.07;4.70;;;9.20;99.90;;;9.27;76.55;101158.56;5073082;28;20041;-70
2020/12/24 09:01:41;;;;;;;7.80;4.50;;;9.20;99.90;;;9.19;77.27;101159.41;5073544;28;20082;-70
2020/12/24 09:04:14;;;;;;;10.75;5.00;;;9.20;99.90;;;9.21;76.80;101150.66;5073107;28;20053;-72
2020/12/24 09:06:43;;;;;;;13.88;5.18;;;9.20;99.90;;;9.30;76.69;101177.09;5073419;28;20051;-71
2020/12/24 09:09:20;;;;;;;10.25;5.15;;;9.20;99.90;;;9.30;76.54;101185.00;5073284;28;20094;-71
2020/12/24 09:11:49;;;;;;;10.98;4.72;;;9.30;99.90;;;9.28;76.55;101184.09;5073429;28;20040;-71
2020/12/24 09:14:19;;;;;;;10.52;4.85;;;9.40;99.90;;;9.01;77.63;101210.31;5073169;28;20068;-71
2020/12/24 09:17:00;;;;;;;9.52;4.43;;;9.10;99.90;;;8.87;78.17;101215.47;5073274;28;20140;-69
2020/12/24 09:19:29;;;;;;;8.95;4.40;;;8.90;99.90;;;8.65;78.71;101228.50;5072918;28;20110;-69
2020/12/24 09:21:58;;;;;;;7.90;4.55;;;8.70;99.90;;;8.84;78.41;101235.69;5072709;28;20036;-68
2020/12/24 09:24:26;;;;;;;10.68;4.25;;;8.80;99.90;;;8.56;78.76;101215.19;5072806;28;20048;-71
2020/12/24 09:26:56;;;;;;;9.77;4.07;;;8.60;99.90;;;8.66;79.10;101203.88;5073024;28;20131;-72
2020/12/24 09:29:27;;;;;;;8.02;4.15;;;8.60;99.90;;;8.76;78.36;101198.69;5073483;28;20075;-70
2020/12/24 09:31:57;;;;;;;8.38;3.58;;;8.70;99.90;;;8.81;77.30;101201.34;5072991;28;20041;-70
2020/12/24 09:34:25;;;;;;;7.70;4.60;;;8.80;99.90;;;8.89;75.77;101211.09;5071298;28;20056;-70
2020/12/24 09:36:53;;;;;;;6.30;4.03;;;8.90;99.90;;;8.87;74.79;101212.84;5072347;28;20086;-69
2020/12/24 09:39:21;;;;;;;10.45;4.18;;;8.90;99.90;;;8.99;75.21;101219.97;5072087;28;20049;-69
2020/12/24 09:41:49;;;;;;;9.55;4.43;;;9.00;99.90;;;8.92;74.57;101194.44;5071310;28;20095;-70
2020/12/24 09:44:18;;;;;;;11.90;4.40;;;9.10;99.90;;;9.26;73.76;101238.63;5072988;28;20050;-71
2020/12/24 09:46:48;;;;;;;9.23;4.50;;;9.10;99.90;;;9.36;73.76;101251.03;5072655;28;20044;-70
2020/12/24 09:49:16;;;;;;;11.75;4.60;;;9.30;99.90;;;9.35;73.38;101248.41;5072379;28;20058;-69
2020/12/24 09:51:44;;;;;;;17.38;5.13;;;9.30;99.90;;;9.34;72.01;101255.41;5072082;28;20068;-69
2020/12/24 09:54:30;;;;;;;14.68;5.57;;;9.30;99.90;;;9.48;71.61;101259.03;5072601;28;20049;-68
2020/12/24 09:56:58;;;;;;;12.48;5.20;;;9.40;99.90;;;9.60;71.84;101263.50;5072286;28;20482;-69
2020/12/24 09:59:26;;;;;;;13.35;4.85;;;9.60;99.90;;;9.64;72.57;101258.22;5071159;28;20501;-69
2020/12/24 10:01:54;;;;;;;17.73;5.72;;;9.60;99.90;;;9.65;72.48;101249.44;5072366;28;20444;-70
2020/12/24 10:04:22;;;;;;;18.42;5.45;;;9.60;99.90;;;9.78;71.67;101272.41;5072032;28;20040;-70
2020/12/24 10:06:49;;;;;;;18.27;6.07;;;9.70;99.90;;;9.68;70.84;101274.97;5072451;28;20105;-70
2020/12/24 10:09:17;;;;;;;19.80;5.50;;;9.60;99.90;;;9.69;70.80;101279.41;5072326;28;20049;-70
2020/12/24 10:11:49;;;;;;;16.48;5.32;;;9.60;99.90;;;9.53;70.39;101261.69;5072473;28;20080;-70
2020/12/24 10:14:16;;;;;;;14.55;4.95;;;9.60;99.90;;;9.81;70.75;101290.91;5072047;28;20390;-70
2020/12/24 10:16:44;;;;;;;13.00;4.60;;;9.70;99.90;;;9.74;70.72;101267.09;5072096;28;20370;-70
2020/12/24 10:19:11;;;;;;;15.95;5.55;;;9.80;99.90;;;9.81;70.20;101275.03;5070898;28;20114;-70
2020/12/24 10:21:40;;;;;;;16.27;5.55;;;9.80;99.90;;;9.88;69.46;101290.06;5070957;28;20041;-70
2020/12/24 10:24:17;;;;;;;17.95;6.05;;;9.80;99.90;;;9.88;68.59;101283.91;5070886;28;20387;-71
2020/12/24 10:26:44;;;;;;;26.08;6.10;;;9.90;99.90;;;9.43;68.66;101191.22;5071844;28;20036;-70
2020/12/24 10:29:13;;;;;;;14.85;5.30;;;10.00;99.90;;;10.03;68.99;101290.16;5072086;28;20047;-70
2020/12/24 10:31:44;;;;;;;15.35;4.95;;;10.00;99.90;;;10.08;68.68;101292.81;5071620;28;20036;-70